Hague, Canada
Current Conditions -  °F | °C
As of 6:18 PM on Friday 21 Nov 2014 (Local Time) from CYXE Reporting Station
Overcast Overcast  
Wind Chill: 32°   Ceiling: 1000
Heat Index: 32°   Visibility: 15mi
Dew Point: 32°   Wind: 3mph
Humidity: 100%   Direction: 80°E
Pressure: 29.57"   Gusts: NA
Location:  52.51°N, 106.42°W
Report Text: CYXE 220018Z 08003KT 15SM OVC010 00/00 A2957 RMK SC8 SLP040
Loading
Personal Weather Stations






























Interactive Weather Map New forecast layout! Learn more

10-Day Weather Forecast

Advertisements
Track Severe Weather on mobile